Terminal Aerodrome Forecast
Issued by NWS

Home | Current Version | Previous Version | Text Only | Print | Product List | Glossary On
Versions: 1 2 3 4 5 6 7 8 9 10 11 12 13 14 15 16 17 18 19 20 21 22 23 24 25
000
FTUS42 KGSP 022330
TAFAND
TAF
KAND 022330Z 0300/0324 28007KT P6SM OVC250
     FM030500 04008KT 5SM -RA OVC015
     FM030800 06009KT 4SM -RA OVC010
     FM031700 06005KT 3SM -RA BR OVC008
     FM032000 06005KT 3SM -RA BR OVC005=

USA.gov is the U.S. government's official web portal to all federal, state and local government web resources and services.